createdAt,value
2018-06-01T00:02:11.143Z,21.80
2018-06-01T00:04:54.164Z,22.87
2018-06-01T00:07:24.440Z,23.17
2018-06-01T00:09:58.297Z,23.00
2018-06-01T00:12:30.148Z,25.00
2018-06-01T00:15:00.657Z,23.80
2018-06-01T00:20:18.955Z,22.60
2018-06-01T00:22:50.129Z,24.30
2018-06-01T00:25:24.057Z,25.53
2018-06-01T00:28:02.529Z,23.53
2018-06-01T00:30:31.428Z,22.50
2018-06-01T00:33:02.640Z,24.70
2018-06-01T00:35:32.401Z,22.63
2018-06-01T00:38:01.105Z,20.93
2018-06-01T00:40:31.269Z,23.20
2018-06-01T00:43:01.080Z,25.13
2018-06-01T00:45:36.283Z,24.57
2018-06-01T00:48:08.126Z,23.83
2018-06-01T00:50:38.947Z,23.80
2018-06-01T00:53:07.180Z,24.47
2018-06-01T00:55:41.149Z,26.10
2018-06-01T00:58:13.569Z,26.40
2018-06-01T01:00:43.070Z,22.73
2018-06-01T01:03:12.779Z,23.50
2018-06-01T01:05:45.672Z,21.50
2018-06-01T01:08:15.799Z,24.30
2018-06-01T01:10:45.701Z,22.17
2018-06-01T01:13:18.732Z,21.30
2018-06-01T01:15:51.002Z,23.33
2018-06-01T01:18:21.735Z,23.17
2018-06-01T01:20:52.623Z,23.30
2018-06-01T01:26:00.274Z,24.60
2018-06-01T01:28:38.698Z,22.73
2018-06-01T01:31:11.529Z,24.47
2018-06-01T01:33:45.540Z,23.47
2018-06-01T01:36:20.131Z,23.17
2018-06-01T01:41:36.838Z,23.67
2018-06-01T01:44:09.835Z,25.00
2018-06-01T01:46:40.511Z,25.37
2018-06-01T01:49:26.607Z,22.77
2018-06-01T01:52:02.046Z,23.83
2018-06-01T01:54:39.726Z,23.23
2018-06-01T01:57:09.160Z,22.90
2018-06-01T01:59:41.531Z,26.50
2018-06-01T02:02:23.506Z,29.13
2018-06-01T02:07:49.620Z,23.87
2018-06-01T02:16:21.770Z,23.30
2018-06-01T02:23:13.277Z,25.40
2018-06-01T02:25:50.046Z,26.63
2018-06-01T02:28:19.935Z,25.83
2018-06-01T02:34:00.728Z,23.93
2018-06-01T02:36:39.988Z,24.13
2018-06-01T02:39:29.098Z,25.73
2018-06-01T02:41:58.618Z,26.60
2018-06-01T02:44:27.747Z,26.53
2018-06-01T02:46:56.146Z,26.43
2018-06-01T02:49:24.558Z,27.33
2018-06-01T02:51:54.404Z,26.03
2018-06-01T02:54:23.457Z,25.67
2018-06-01T02:56:53.531Z,25.47
2018-06-01T02:59:23.187Z,25.87
2018-06-01T03:01:52.598Z,26.07
2018-06-01T03:04:25.683Z,26.57
2018-06-01T03:07:20.278Z,25.40
2018-06-01T03:09:49.482Z,25.87
2018-06-01T03:12:17.543Z,27.53
2018-06-01T03:14:46.745Z,26.43
2018-06-01T03:17:15.444Z,26.83
2018-06-01T03:19:44.205Z,25.97
2018-06-01T03:22:14.203Z,27.23
2018-06-01T03:24:48.395Z,24.33
2018-06-01T03:27:21.099Z,25.90
2018-06-01T03:29:53.257Z,26.00
2018-06-01T03:32:25.768Z,31.67
2018-06-01T03:34:55.785Z,29.07
2018-06-01T03:37:29.147Z,28.53
2018-06-01T03:40:03.579Z,25.57
2018-06-01T03:42:37.721Z,25.97
2018-06-01T03:45:08.043Z,25.63
2018-06-01T03:47:39.350Z,26.60
2018-06-01T03:50:16.468Z,25.63
2018-06-01T03:52:46.287Z,27.57
2018-06-01T03:55:18.297Z,26.17
2018-06-01T03:57:47.561Z,25.33
2018-06-01T04:02:53.254Z,26.37
2018-06-01T04:05:21.788Z,26.63
2018-06-01T04:07:50.913Z,27.27
2018-06-01T04:10:22.656Z,24.17
2018-06-01T04:12:55.532Z,26.43
2018-06-01T04:15:27.975Z,27.10
2018-06-01T04:17:57.568Z,25.17
2018-06-01T04:20:36.746Z,27.50
2018-06-01T04:23:05.194Z,27.03
2018-06-01T04:25:34.815Z,27.57
2018-06-01T04:28:04.438Z,26.07
2018-06-01T04:30:34.216Z,26.90
2018-06-01T04:33:03.243Z,27.70
2018-06-01T04:35:33.622Z,26.13
2018-06-01T04:38:03.088Z,26.27
2018-06-01T04:40:38.134Z,26.27
2018-06-01T04:43:08.894Z,25.53
2018-06-01T04:45:37.987Z,25.33
2018-06-01T04:48:07.374Z,26.00
2018-06-01T04:50:38.418Z,26.50
2018-06-01T04:53:26.159Z,24.37
2018-06-01T04:56:19.335Z,26.97
2018-06-01T04:59:01.626Z,25.67
2018-06-01T05:01:30.673Z,23.63
2018-06-01T05:03:59.853Z,24.98
2018-06-01T05:06:32.413Z,24.47
2018-06-01T05:09:03.085Z,23.40
2018-06-01T05:11:32.650Z,26.57
2018-06-01T05:14:00.772Z,23.35
2018-06-01T05:16:34.220Z,24.92
2018-06-01T05:19:03.149Z,25.45
2018-06-01T05:21:31.118Z,23.93
2018-06-01T05:24:02.411Z,24.90
2018-06-01T05:26:30.738Z,26.10
2018-06-01T05:28:58.922Z,26.00
2018-06-01T05:31:29.849Z,21.75
2018-06-01T05:33:59.750Z,24.17
2018-06-01T05:36:28.627Z,24.73
2018-06-01T05:38:58.416Z,26.60
2018-06-01T05:41:27.364Z,24.35
2018-06-01T05:43:55.428Z,22.50
2018-06-01T05:46:25.451Z,21.27
2018-06-01T05:48:54.551Z,22.63
2018-06-01T05:51:22.991Z,23.87
2018-06-01T05:53:53.141Z,23.83
2018-06-01T05:56:22.217Z,23.90
2018-06-01T05:58:50.316Z,24.83
2018-06-01T06:01:19.082Z,23.67
2018-06-01T06:03:53.581Z,24.25
2018-06-01T06:06:25.232Z,24.17
2018-06-01T06:08:59.583Z,23.75
2018-06-01T06:11:27.534Z,24.25
2018-06-01T06:13:55.142Z,23.90
2018-06-01T06:16:23.375Z,22.17
2018-06-01T06:18:54.262Z,23.55
2018-06-01T06:21:21.796Z,22.98
2018-06-01T06:23:49.881Z,22.10
2018-06-01T06:26:18.282Z,23.00
2018-06-01T06:28:46.051Z,23.60
2018-06-01T06:31:13.579Z,25.12
2018-06-01T06:33:42.613Z,24.77
2018-06-01T06:36:10.992Z,25.60
2018-06-01T06:38:38.489Z,26.48
2018-06-01T06:41:06.002Z,23.85
2018-06-01T06:43:33.485Z,23.48
2018-06-01T06:46:01.960Z,26.20
2018-06-01T06:48:31.158Z,24.33
2018-06-01T06:50:58.657Z,23.15
2018-06-01T06:53:26.139Z,24.75
2018-06-01T06:55:55.406Z,23.20
2018-06-01T06:58:22.891Z,25.62
2018-06-01T07:00:51.005Z,23.35
2018-06-01T07:03:22.343Z,22.50
2018-06-01T07:05:52.542Z,23.08
2018-06-01T07:08:21.651Z,21.33
2018-06-01T07:10:51.361Z,21.52
2018-06-01T07:13:19.435Z,21.48
2018-06-01T07:15:46.931Z,20.95
2018-06-01T07:18:15.082Z,20.48
2018-06-01T07:20:42.558Z,21.95
2018-06-01T07:23:10.076Z,21.40
2018-06-01T07:25:39.108Z,21.90
2018-06-01T07:28:06.622Z,19.80
2018-06-01T07:30:34.109Z,20.23
2018-06-01T07:33:01.626Z,20.17
2018-06-01T07:35:29.188Z,21.73
2018-06-01T07:37:58.458Z,20.40
2018-06-01T07:40:25.966Z,21.60
2018-06-01T07:42:56.723Z,20.35
2018-06-01T07:45:24.865Z,20.55
2018-06-01T07:48:00.508Z,21.33
2018-06-01T07:50:35.870Z,21.00
2018-06-01T07:53:12.284Z,21.00
2018-06-01T07:55:43.377Z,22.77
2018-06-01T08:00:50.593Z,22.52
2018-06-01T08:03:28.305Z,23.45
2018-06-01T08:06:20.716Z,20.60
2018-06-01T08:08:49.608Z,21.85
2018-06-01T08:11:18.908Z,20.25
2018-06-01T08:13:49.438Z,20.73
2018-06-01T08:16:19.956Z,20.77
2018-06-01T08:21:37.205Z,21.37
2018-06-01T08:24:05.730Z,21.20
2018-06-01T08:26:33.776Z,19.15
2018-06-01T08:29:04.798Z,20.30
2018-06-01T08:31:33.839Z,21.12
2018-06-01T08:34:03.628Z,20.50
2018-06-01T08:36:33.281Z,21.42
2018-06-01T08:39:03.944Z,19.77
2018-06-01T08:41:33.565Z,18.40
2018-06-01T08:44:04.537Z,16.33
2018-06-01T08:46:34.259Z,16.45
2018-06-01T08:49:05.600Z,17.27
2018-06-01T08:51:36.305Z,14.93
2018-06-01T08:54:05.524Z,17.92
2018-06-01T08:56:34.266Z,16.80
2018-06-01T08:59:02.516Z,17.55
2018-06-01T09:01:32.736Z,16.30
2018-06-01T09:04:01.407Z,15.98
2018-06-01T09:06:32.136Z,15.55
2018-06-01T09:09:00.985Z,15.82
2018-06-01T09:11:31.392Z,17.50
2018-06-01T09:14:01.005Z,16.15
2018-06-01T09:16:31.280Z,15.50
2018-06-01T09:18:59.497Z,15.32
2018-06-01T09:21:27.992Z,15.48
2018-06-01T09:23:57.826Z,15.32
2018-06-01T09:26:27.680Z,16.15
2018-06-01T09:28:56.803Z,13.88
2018-06-01T09:31:26.621Z,12.45
2018-06-01T09:33:54.843Z,12.23
2018-06-01T09:36:24.575Z,11.27
2018-06-01T09:38:52.578Z,10.85
2018-06-01T09:41:21.431Z,11.38
2018-06-01T09:43:50.299Z,11.07
2018-06-01T09:46:20.074Z,10.38
2018-06-01T09:48:53.601Z,11.48
2018-06-01T09:51:22.879Z,10.93
2018-06-01T09:53:51.435Z,11.18
2018-06-01T09:56:20.549Z,10.02
2018-06-01T09:58:58.382Z,11.20
2018-06-01T10:01:29.710Z,10.18
2018-06-01T10:03:57.675Z,12.63
2018-06-01T10:06:27.235Z,10.63
2018-06-01T10:08:55.851Z,10.77
2018-06-01T10:11:25.917Z,10.10
2018-06-01T10:13:56.502Z,9.68
2018-06-01T10:16:24.930Z,9.20
2018-06-01T10:18:54.432Z,9.13
2018-06-01T10:21:22.634Z,10.25
2018-06-01T10:23:51.441Z,8.88
2018-06-01T10:26:22.842Z,9.68
2018-06-01T10:28:54.601Z,9.07
2018-06-01T10:31:24.688Z,10.00
2018-06-01T10:33:54.808Z,10.88
2018-06-01T10:36:22.408Z,8.68
2018-06-01T10:38:49.959Z,11.75
2018-06-01T10:41:22.224Z,16.25
2018-06-01T10:43:51.370Z,9.18
2018-06-01T10:46:19.596Z,9.93
2018-06-01T10:48:47.711Z,9.35
2018-06-01T10:51:16.868Z,9.63
2018-06-01T10:53:45.350Z,10.05
2018-06-01T10:56:13.467Z,9.23
2018-06-01T10:58:42.408Z,21.85
2018-06-01T11:01:10.479Z,11.40
2018-06-01T11:03:39.680Z,13.10
2018-06-01T11:06:16.257Z,12.23
2018-06-01T11:08:44.221Z,12.20
2018-06-01T11:11:12.290Z,10.05
2018-06-01T11:13:40.403Z,10.10
2018-06-01T11:16:11.822Z,10.82
2018-06-01T11:18:41.933Z,10.45
2018-06-01T11:21:11.441Z,11.18
2018-06-01T11:23:40.287Z,9.73
2018-06-01T11:26:08.524Z,11.48
2018-06-01T11:28:38.881Z,12.80
2018-06-01T11:31:08.175Z,11.23
2018-06-01T11:33:36.437Z,12.15
2018-06-01T11:36:07.693Z,10.52
2018-06-01T11:38:35.971Z,10.00
2018-06-01T11:41:04.659Z,11.40
2018-06-01T11:43:33.908Z,11.25
2018-06-01T11:46:03.663Z,12.30
2018-06-01T11:48:31.536Z,11.45
2018-06-01T11:50:59.759Z,10.40
2018-06-01T11:53:27.628Z,10.18
2018-06-01T11:55:56.015Z,10.88
2018-06-01T11:58:25.080Z,10.25
2018-06-01T12:01:00.085Z,9.80
2018-06-01T12:03:30.690Z,9.88
2018-06-01T12:05:59.632Z,8.98
2018-06-01T12:08:28.215Z,9.07
2018-06-01T12:10:58.536Z,9.25
2018-06-01T12:13:27.820Z,9.20
2018-06-01T12:15:56.339Z,9.30
2018-06-01T12:18:24.402Z,10.45
2018-06-01T12:20:55.901Z,10.02
2018-06-01T12:23:24.214Z,10.80
2018-06-01T12:25:52.997Z,9.85
2018-06-01T12:28:22.603Z,9.88
2018-06-01T12:30:50.582Z,9.82
2018-06-01T12:33:20.523Z,9.57
2018-06-01T12:35:51.308Z,9.63
2018-06-01T12:38:39.603Z,8.90
2018-06-01T12:41:13.205Z,10.10
2018-06-01T12:43:45.070Z,9.68
2018-06-01T12:46:18.360Z,8.27
2018-06-01T12:48:48.807Z,7.82
2018-06-01T12:51:29.467Z,6.87
2018-06-01T12:54:01.995Z,6.87
2018-06-01T12:56:40.084Z,7.12
2018-06-01T13:02:24.608Z,7.35
2018-06-01T13:04:59.046Z,6.70
2018-06-01T13:07:37.924Z,6.68
2018-06-01T13:10:07.653Z,5.68
2018-06-01T13:12:37.362Z,5.93
2018-06-01T13:15:17.688Z,5.62
2018-06-01T13:18:03.883Z,6.03
2018-06-01T13:20:35.532Z,4.65
2018-06-01T13:23:05.337Z,5.12
2018-06-01T13:25:50.983Z,5.70
2018-06-01T13:28:24.371Z,5.37
2018-06-01T13:33:43.864Z,6.78
2018-06-01T13:36:16.439Z,6.57
2018-06-01T13:38:45.377Z,5.97
2018-06-01T13:41:21.241Z,5.20
2018-06-01T13:43:55.253Z,5.97
2018-06-01T13:46:33.504Z,7.20
2018-06-01T13:49:03.486Z,6.85
2018-06-01T13:51:43.991Z,4.90
2018-06-01T13:54:14.168Z,6.43
2018-06-01T13:56:48.981Z,5.87
2018-06-01T13:59:18.520Z,5.20
2018-06-01T14:01:46.658Z,7.10
2018-06-01T14:04:20.369Z,4.85
2018-06-01T14:06:50.094Z,4.22
2018-06-01T14:11:58.050Z,4.10
2018-06-01T14:14:28.484Z,5.93
2018-06-01T14:16:59.157Z,4.53
2018-06-01T14:19:28.094Z,4.93
2018-06-01T14:21:58.522Z,5.12
2018-06-01T14:24:29.443Z,3.40
2018-06-01T14:27:01.625Z,3.85
2018-06-01T14:29:31.139Z,3.65
2018-06-01T14:32:00.078Z,3.72
2018-06-01T14:34:29.263Z,3.60
2018-06-01T14:37:02.611Z,4.25
2018-06-01T14:39:39.132Z,3.67
2018-06-01T14:44:42.871Z,3.78
2018-06-01T14:47:16.501Z,3.92
2018-06-01T14:49:44.832Z,5.93
2018-06-01T14:52:24.834Z,3.40
2018-06-01T14:54:55.428Z,3.30
2018-06-01T14:57:29.034Z,5.35
2018-06-01T15:00:05.600Z,3.28
2018-06-01T15:02:37.014Z,3.37
2018-06-01T15:05:08.408Z,3.03
2018-06-01T15:07:41.808Z,3.72
2018-06-01T15:10:11.026Z,3.60
2018-06-01T15:12:40.507Z,3.78
2018-06-01T15:15:08.532Z,3.72
2018-06-01T15:17:37.441Z,4.47
2018-06-01T15:20:08.186Z,3.20
2018-06-01T15:22:41.247Z,3.50
2018-06-01T15:25:10.870Z,3.83
2018-06-01T15:27:39.724Z,3.47
2018-06-01T15:30:07.871Z,3.20
2018-06-01T15:32:36.125Z,4.15
2018-06-01T15:35:04.657Z,5.35
2018-06-01T15:37:36.499Z,3.83
2018-06-01T15:40:07.013Z,5.25
2018-06-01T15:42:35.295Z,3.50
2018-06-01T15:45:05.369Z,4.22
2018-06-01T15:47:34.049Z,3.70
2018-06-01T15:50:03.251Z,3.72
2018-06-01T15:52:31.235Z,3.83
2018-06-01T15:54:59.993Z,3.33
2018-06-01T15:57:28.695Z,3.55
2018-06-01T15:59:56.877Z,3.87
2018-06-01T16:02:25.472Z,3.20
2018-06-01T16:04:53.423Z,3.50
2018-06-01T16:07:22.649Z,3.62
2018-06-01T16:09:50.413Z,3.65
2018-06-01T16:12:18.551Z,3.42
2018-06-01T16:14:47.141Z,3.87
2018-06-01T16:17:15.702Z,3.60
2018-06-01T16:19:45.984Z,3.95
2018-06-01T16:22:14.384Z,3.78
2018-06-01T16:24:49.163Z,3.42
2018-06-01T16:27:21.028Z,3.35
2018-06-01T16:29:48.983Z,3.62
2018-06-01T16:32:19.296Z,3.62
2018-06-01T16:34:49.373Z,4.12
2018-06-01T16:37:18.845Z,3.53
2018-06-01T16:39:46.930Z,5.32
2018-06-01T16:42:15.848Z,3.97
2018-06-01T16:44:45.297Z,3.78
2018-06-01T16:47:14.297Z,4.40
2018-06-01T16:49:42.560Z,4.53
2018-06-01T16:52:13.371Z,4.15
2018-06-01T16:54:42.524Z,4.45
2018-06-01T16:57:13.825Z,5.55
2018-06-01T16:59:45.394Z,4.72
2018-06-01T17:02:17.152Z,4.60
2018-06-01T17:04:47.620Z,4.30
2018-06-01T17:10:03.605Z,5.53
2018-06-01T17:12:31.566Z,4.95
2018-06-01T17:15:00.407Z,12.52
2018-06-01T17:17:30.620Z,4.32
2018-06-01T17:20:09.032Z,3.45
2018-06-01T17:22:39.540Z,3.78
2018-06-01T17:25:14.287Z,6.22
2018-06-01T17:27:42.515Z,3.40
2018-06-01T17:30:10.287Z,4.00
2018-06-01T17:32:38.226Z,5.28
2018-06-01T17:35:06.336Z,3.92
2018-06-01T17:37:36.694Z,4.65
2018-06-01T17:40:04.702Z,3.83
2018-06-01T17:42:33.271Z,4.80
2018-06-01T17:45:01.151Z,4.30
2018-06-01T17:47:33.960Z,3.70
2018-06-01T17:50:03.077Z,3.55
2018-06-01T17:52:34.510Z,3.50
2018-06-01T17:55:03.423Z,3.28
2018-06-01T17:57:31.295Z,3.22
2018-06-01T18:00:05.735Z,4.60
2018-06-01T18:49:27.574Z,2.60
2018-06-01T18:51:56.416Z,3.42
2018-06-01T18:54:48.329Z,3.25
2018-06-01T18:57:30.594Z,3.25
2018-06-01T18:59:59.314Z,4.22
2018-06-01T19:02:28.606Z,3.30
2018-06-01T19:04:57.222Z,4.28
2018-06-01T19:07:26.356Z,3.95
2018-06-01T19:09:58.548Z,3.55
2018-06-01T19:12:26.617Z,3.97
2018-06-01T19:14:56.251Z,2.20
2018-06-01T19:17:24.165Z,3.05
2018-06-01T19:19:52.142Z,2.67
2018-06-01T19:22:20.560Z,2.60
2018-06-01T19:24:48.987Z,3.00
2018-06-01T19:27:16.836Z,2.95
2018-06-01T19:29:46.227Z,2.75
2018-06-01T19:32:14.065Z,2.70
2018-06-01T19:35:05.060Z,3.87
2018-06-01T19:37:35.617Z,3.17
2018-06-01T19:40:05.201Z,2.40
2018-06-01T19:42:47.769Z,4.53
2018-06-01T19:45:18.059Z,2.28
2018-06-01T19:47:50.247Z,2.47
2018-06-01T19:50:20.568Z,4.00
2018-06-01T19:52:50.820Z,3.25
2018-06-01T19:55:19.518Z,2.25
2018-06-01T19:57:47.843Z,1.98
2018-06-01T20:00:26.772Z,1.70
2018-06-01T20:02:55.678Z,2.00
2018-06-01T20:05:28.620Z,1.90
2018-06-01T20:08:02.100Z,1.87
2018-06-01T20:10:30.431Z,1.77
2018-06-01T20:12:58.298Z,3.00
2018-06-01T20:15:26.665Z,1.92
2018-06-01T20:17:56.216Z,2.90
2018-06-01T20:20:24.396Z,2.23
2018-06-01T20:22:55.922Z,2.97
2018-06-01T20:25:38.824Z,1.90
2018-06-01T20:28:07.331Z,3.00
2018-06-01T20:30:36.400Z,2.00
2018-06-01T20:33:05.623Z,2.40
2018-06-01T20:35:34.002Z,5.77
2018-06-01T20:38:04.966Z,1.90
2018-06-01T20:40:34.255Z,1.95
2018-06-01T20:43:02.712Z,2.13
2018-06-01T20:45:31.108Z,2.37
2018-06-01T20:48:00.698Z,2.10
2018-06-01T20:50:30.623Z,2.65
2018-06-01T20:52:59.284Z,2.80
2018-06-01T20:55:27.373Z,2.17
2018-06-01T20:57:55.714Z,2.27
2018-06-01T21:00:23.421Z,1.90
2018-06-01T21:02:51.471Z,2.80
2018-06-01T21:05:20.169Z,2.00
2018-06-01T21:07:48.405Z,2.23
2018-06-01T21:10:17.026Z,2.33
2018-06-01T21:12:44.941Z,2.30
2018-06-01T21:15:13.730Z,3.60
2018-06-01T21:17:42.759Z,2.40
2018-06-01T21:20:11.759Z,2.00
2018-06-01T21:22:41.197Z,2.23
2018-06-01T21:25:10.569Z,2.63
2018-06-01T21:27:38.894Z,2.00
2018-06-01T21:30:09.850Z,2.20
2018-06-01T21:32:37.741Z,2.30
2018-06-01T21:35:05.732Z,2.10
2018-06-01T21:37:34.756Z,2.40
2018-06-01T21:40:02.705Z,2.13
2018-06-01T21:42:35.049Z,2.00
2018-06-01T21:45:05.399Z,2.90
2018-06-01T21:47:33.371Z,2.80
2018-06-01T21:50:01.419Z,2.20
2018-06-01T21:52:30.059Z,1.80
2018-06-01T21:54:58.007Z,1.90
2018-06-01T21:57:26.237Z,2.03
2018-06-01T21:59:55.557Z,2.77
2018-06-01T22:02:24.910Z,2.13
2018-06-01T22:04:53.128Z,2.57
2018-06-01T22:07:21.135Z,2.17
2018-06-01T22:09:49.129Z,1.87
2018-06-01T22:12:18.119Z,2.13
2018-06-01T22:14:46.404Z,2.20
2018-06-01T22:17:15.284Z,2.40
2018-06-01T22:19:43.856Z,2.50
2018-06-01T22:22:12.020Z,2.50
2018-06-01T22:24:41.649Z,1.80
2018-06-01T22:27:09.694Z,2.20
2018-06-01T22:29:37.681Z,2.40
2018-06-01T22:32:06.373Z,2.40
2018-06-01T22:34:34.778Z,2.30
2018-06-01T22:37:03.058Z,2.83
2018-06-01T22:39:33.597Z,2.40
2018-06-01T22:42:05.673Z,2.33
2018-06-01T22:44:33.639Z,3.33
2018-06-01T22:47:01.511Z,2.40
2018-06-01T22:49:30.364Z,2.70
2018-06-01T22:52:01.162Z,2.30
2018-06-01T22:54:33.300Z,3.13
2018-06-01T22:57:06.165Z,2.30
2018-06-01T22:59:36.637Z,2.43
2018-06-01T23:02:04.731Z,3.03
2018-06-01T23:04:32.711Z,2.40
2018-06-01T23:07:00.638Z,2.53
2018-06-01T23:09:28.939Z,3.60
2018-06-01T23:11:59.369Z,3.13
2018-06-01T23:14:27.979Z,2.83
2018-06-01T23:16:57.185Z,2.67
2018-06-01T23:19:24.954Z,2.63
2018-06-01T23:21:54.690Z,3.00
2018-06-01T23:24:23.469Z,2.80
2018-06-01T23:26:52.100Z,2.77
2018-06-01T23:29:20.270Z,3.20
2018-06-01T23:31:48.363Z,2.97
2018-06-01T23:34:18.391Z,3.20
2018-06-01T23:36:50.735Z,3.53
2018-06-01T23:39:20.678Z,3.37
2018-06-01T23:41:49.167Z,3.07
2018-06-01T23:44:17.373Z,3.33
2018-06-01T23:46:45.616Z,3.20
2018-06-01T23:49:13.869Z,3.37
2018-06-01T23:51:45.891Z,3.83
2018-06-01T23:54:14.094Z,3.93
2018-06-01T23:56:43.004Z,3.87
2018-06-01T23:59:11.532Z,3.40
